createdAt,value
2019-01-10T00:02:21.323Z,43.50
2019-01-10T00:04:51.477Z,45.20
2019-01-10T00:07:21.694Z,47.83
2019-01-10T00:09:51.902Z,54.43
2019-01-10T00:12:22.062Z,49.23
2019-01-10T00:14:52.202Z,52.83
2019-01-10T00:17:22.341Z,52.60
2019-01-10T00:19:52.486Z,55.87
2019-01-10T00:22:22.616Z,52.03
2019-01-10T00:24:52.777Z,57.53
2019-01-10T00:27:22.942Z,49.73
2019-01-10T00:29:53.097Z,48.33
2019-01-10T00:32:23.249Z,48.07
2019-01-10T00:34:53.461Z,49.60
2019-01-10T00:37:23.631Z,48.00
2019-01-10T00:39:53.771Z,48.17
2019-01-10T00:42:23.978Z,48.60
2019-01-10T00:44:54.120Z,47.37
2019-01-10T00:47:26.298Z,49.20
2019-01-10T00:49:56.514Z,50.20
2019-01-10T00:52:26.678Z,54.73
2019-01-10T00:54:56.826Z,50.03
2019-01-10T00:57:29.786Z,49.33
2019-01-10T00:59:59.955Z,51.97
2019-01-10T01:02:30.130Z,49.60
2019-01-10T01:05:00.297Z,49.20
2019-01-10T01:07:30.562Z,47.53
2019-01-10T01:10:00.695Z,46.70
2019-01-10T01:12:31.034Z,47.23
2019-01-10T01:15:01.583Z,48.40
2019-01-10T01:17:32.203Z,47.70
2019-01-10T01:20:02.373Z,47.07
2019-01-10T01:22:32.523Z,45.47
2019-01-10T01:25:02.671Z,46.47
2019-01-10T01:27:32.830Z,46.37
2019-01-10T01:30:03.171Z,46.47
2019-01-10T01:32:33.497Z,48.90
2019-01-10T01:35:03.746Z,47.53
2019-01-10T01:37:33.959Z,48.77
2019-01-10T01:40:04.650Z,46.60
2019-01-10T01:42:34.844Z,48.37
2019-01-10T01:45:06.033Z,49.57
2019-01-10T01:47:37.213Z,45.50
2019-01-10T01:50:09.459Z,45.80
2019-01-10T01:52:39.671Z,48.63
2019-01-10T01:55:10.174Z,47.53
2019-01-10T01:57:40.343Z,49.90
2019-01-10T02:00:13.594Z,48.33
2019-01-10T02:02:44.658Z,47.40
2019-01-10T02:05:15.146Z,45.80
2019-01-10T02:07:46.326Z,45.87
2019-01-10T02:10:18.901Z,46.67
2019-01-10T02:12:49.238Z,48.17
2019-01-10T02:15:19.383Z,45.47
2019-01-10T02:17:49.618Z,44.33
2019-01-10T02:20:20.827Z,46.33
2019-01-10T02:22:52.024Z,44.30
2019-01-10T02:25:22.202Z,44.07
2019-01-10T02:27:52.355Z,43.90
2019-01-10T02:30:24.448Z,42.70
2019-01-10T02:32:54.731Z,42.80
2019-01-10T02:35:24.921Z,43.00
2019-01-10T02:37:55.147Z,43.67
2019-01-10T02:40:25.383Z,43.60
2019-01-10T02:42:55.552Z,42.40
2019-01-10T02:45:25.790Z,44.77
2019-01-10T02:47:56.915Z,41.60
2019-01-10T02:50:27.066Z,42.43
2019-01-10T02:52:57.222Z,42.20
2019-01-10T02:55:27.378Z,42.50
2019-01-10T02:57:57.530Z,43.80
2019-01-10T03:00:27.704Z,44.93
2019-01-10T03:02:57.866Z,42.93
2019-01-10T03:05:28.108Z,42.90
2019-01-10T03:07:58.256Z,42.87
2019-01-10T03:10:28.409Z,42.73
2019-01-10T03:12:58.567Z,42.30
2019-01-10T03:15:28.707Z,41.13
2019-01-10T03:17:58.887Z,42.17
2019-01-10T03:20:29.021Z,42.53
2019-01-10T03:22:59.174Z,43.47
2019-01-10T03:25:29.395Z,42.50
2019-01-10T03:27:59.532Z,44.67
2019-01-10T03:30:29.681Z,41.53
2019-01-10T03:32:59.845Z,41.83
2019-01-10T03:35:30.091Z,42.90
2019-01-10T03:38:00.270Z,41.87
2019-01-10T03:40:30.446Z,43.03
2019-01-10T03:43:00.602Z,42.97
2019-01-10T03:45:30.743Z,43.77
2019-01-10T03:48:01.758Z,45.03
2019-01-10T03:50:31.897Z,42.67
2019-01-10T03:53:02.053Z,43.50
2019-01-10T03:55:32.317Z,43.03
2019-01-10T03:58:02.593Z,45.27
2019-01-10T04:00:32.746Z,46.00
2019-01-10T04:03:02.910Z,44.53
2019-01-10T04:05:33.067Z,44.73
2019-01-10T04:08:03.230Z,42.73
2019-01-10T04:10:33.383Z,45.70
2019-01-10T04:13:03.522Z,42.67
2019-01-10T04:15:33.769Z,42.57
2019-01-10T04:18:03.951Z,41.83
2019-01-10T04:20:34.217Z,44.80
2019-01-10T04:23:04.350Z,45.23
2019-01-10T04:25:34.502Z,44.60
2019-01-10T04:28:04.650Z,45.90
2019-01-10T04:30:34.802Z,44.27
2019-01-10T04:33:05.054Z,41.83
2019-01-10T04:35:35.292Z,43.33
2019-01-10T04:38:05.508Z,45.43
2019-01-10T04:40:35.755Z,42.67
2019-01-10T04:43:05.994Z,44.83
2019-01-10T04:45:36.186Z,42.70
2019-01-10T04:48:07.431Z,43.87
2019-01-10T04:50:37.604Z,41.97
2019-01-10T04:53:07.773Z,42.63
2019-01-10T04:55:37.957Z,45.27
2019-01-10T04:58:08.098Z,42.53
2019-01-10T05:00:38.402Z,45.10
2019-01-10T05:03:08.553Z,42.40
2019-01-10T05:05:38.693Z,41.60
2019-01-10T05:08:08.886Z,41.80
2019-01-10T05:10:39.066Z,42.33
2019-01-10T05:13:09.233Z,39.70
2019-01-10T05:15:39.445Z,40.13
2019-01-10T05:18:09.604Z,40.67
2019-01-10T05:20:39.841Z,39.17
2019-01-10T05:23:09.978Z,41.13
2019-01-10T05:25:40.142Z,42.03
2019-01-10T05:28:10.325Z,41.53
2019-01-10T05:30:40.513Z,39.10
2019-01-10T05:33:10.722Z,41.03
2019-01-10T05:35:40.910Z,41.10
2019-01-10T05:38:11.118Z,43.03
2019-01-10T05:40:41.309Z,40.37
2019-01-10T05:43:11.524Z,42.43
2019-01-10T05:45:41.717Z,41.73
2019-01-10T05:48:12.824Z,46.63
2019-01-10T05:50:43.803Z,45.60
2019-01-10T05:53:15.150Z,44.77
2019-01-10T05:55:45.353Z,44.03
2019-01-10T05:58:15.563Z,44.93
2019-01-10T06:00:45.754Z,44.47
2019-01-10T06:03:15.942Z,43.93
2019-01-10T06:05:46.170Z,42.17
2019-01-10T06:08:16.388Z,43.83
2019-01-10T06:10:46.576Z,42.37
2019-01-10T06:13:16.791Z,41.53
2019-01-10T06:15:46.974Z,41.83
2019-01-10T06:18:17.198Z,41.87
2019-01-10T06:20:47.374Z,42.53
2019-01-10T06:23:18.077Z,42.80
2019-01-10T06:25:48.397Z,40.83
2019-01-10T06:28:18.577Z,37.57
2019-01-10T06:30:48.808Z,41.07
2019-01-10T06:33:19.002Z,61.77
2019-01-10T06:35:49.206Z,58.40
2019-01-10T06:38:19.583Z,47.50
2019-01-10T06:40:49.787Z,44.10
2019-01-10T06:43:20.005Z,46.20
2019-01-10T06:45:50.324Z,47.07
2019-01-10T06:48:21.481Z,54.50
2019-01-10T06:50:51.675Z,53.47
2019-01-10T06:53:22.046Z,51.03
2019-01-10T06:55:52.249Z,45.43
2019-01-10T06:58:22.497Z,39.90
2019-01-10T07:00:52.762Z,40.67
2019-01-10T07:03:22.961Z,38.67
2019-01-10T07:05:53.378Z,40.83
2019-01-10T07:08:23.549Z,38.70
2019-01-10T07:10:53.761Z,47.10
2019-01-10T07:13:23.903Z,67.10
2019-01-10T07:15:54.071Z,62.73
2019-01-10T07:18:24.234Z,46.73
2019-01-10T07:20:54.423Z,57.20
2019-01-10T07:23:24.581Z,44.63
2019-01-10T07:25:56.443Z,49.63
2019-01-10T07:28:29.679Z,52.90
2019-01-10T07:31:00.173Z,46.40
2019-01-10T07:33:32.405Z,38.87
2019-01-10T07:36:02.759Z,39.10
2019-01-10T07:38:33.214Z,41.23
2019-01-10T07:41:03.427Z,38.83
2019-01-10T07:43:33.593Z,41.67
2019-01-10T07:46:06.643Z,41.07
2019-01-10T07:48:37.701Z,39.93
2019-01-10T07:51:07.867Z,40.93
2019-01-10T07:53:38.055Z,43.00
2019-01-10T07:56:08.225Z,41.00
2019-01-10T07:58:38.385Z,37.73
2019-01-10T08:01:08.710Z,36.30
2019-01-10T08:03:38.895Z,35.63
2019-01-10T08:06:09.088Z,33.50
2019-01-10T08:08:39.263Z,34.07
2019-01-10T08:11:09.443Z,36.67
2019-01-10T08:13:39.697Z,36.67
2019-01-10T08:16:09.961Z,39.03
2019-01-10T08:18:40.203Z,33.70
2019-01-10T08:21:10.422Z,59.63
2019-01-10T08:23:40.586Z,65.60
2019-01-10T08:26:10.722Z,48.97
2019-01-10T08:28:40.911Z,46.60
2019-01-10T08:31:11.089Z,55.77
2019-01-10T08:33:41.248Z,44.90
2019-01-10T08:36:11.402Z,43.00
2019-01-10T08:38:41.569Z,48.07
2019-01-10T08:41:13.837Z,39.20
2019-01-10T08:43:43.647Z,32.73
2019-01-10T08:46:13.786Z,36.83
2019-01-10T08:48:44.932Z,49.10
2019-01-10T08:51:15.114Z,35.57
2019-01-10T08:53:53.565Z,34.73
2019-01-10T08:56:17.129Z,30.07
2019-01-10T08:58:47.330Z,34.07
2019-01-10T09:01:17.614Z,34.23
2019-01-10T09:03:49.327Z,31.53
2019-01-10T09:06:19.703Z,33.20
2019-01-10T09:08:49.854Z,35.17
2019-01-10T09:11:20.123Z,55.17
2019-01-10T09:13:50.189Z,37.07
2019-01-10T09:16:20.461Z,43.33
2019-01-10T09:18:50.611Z,35.33
2019-01-10T09:21:20.800Z,32.97
2019-01-10T09:23:50.970Z,32.87
2019-01-10T09:26:21.112Z,32.03
2019-01-10T09:28:51.274Z,34.30
2019-01-10T09:31:21.443Z,33.27
2019-01-10T09:33:51.578Z,31.40
2019-01-10T09:36:23.898Z,31.27
2019-01-10T09:38:53.580Z,33.27
2019-01-10T09:41:23.750Z,32.93
2019-01-10T09:43:53.999Z,33.97
2019-01-10T09:46:24.204Z,36.10
2019-01-10T09:48:55.217Z,41.17
2019-01-10T09:51:25.350Z,43.67
2019-01-10T09:53:55.522Z,42.87
2019-01-10T09:56:25.665Z,33.20
2019-01-10T09:58:55.864Z,33.73
2019-01-10T10:01:26.206Z,36.67
2019-01-10T10:03:56.359Z,36.07
2019-01-10T10:06:26.490Z,36.57
2019-01-10T10:08:56.627Z,39.93
2019-01-10T10:11:33.966Z,31.60
2019-01-10T10:13:58.803Z,37.20
2019-01-10T10:16:28.973Z,33.57
2019-01-10T10:18:59.221Z,31.83
2019-01-10T10:21:29.393Z,33.27
2019-01-10T10:23:59.547Z,33.37
2019-01-10T10:26:29.689Z,32.00
2019-01-10T10:28:59.890Z,35.33
2019-01-10T10:31:30.084Z,34.23
2019-01-10T10:34:00.274Z,34.03
2019-01-10T10:36:30.413Z,32.80
2019-01-10T10:39:00.584Z,33.20
2019-01-10T10:41:31.507Z,32.30
2019-01-10T10:44:01.682Z,34.30
2019-01-10T10:46:32.202Z,37.27
2019-01-10T10:49:03.277Z,36.67
2019-01-10T10:51:33.521Z,35.97
2019-01-10T10:54:03.686Z,31.97
2019-01-10T10:56:33.953Z,33.10
2019-01-10T10:59:04.086Z,38.57
2019-01-10T11:01:34.241Z,43.90
2019-01-10T11:04:04.857Z,32.90
2019-01-10T11:06:35.003Z,34.53
2019-01-10T11:09:09.269Z,33.50
2019-01-10T11:11:39.811Z,30.17
2019-01-10T11:14:10.053Z,42.20
2019-01-10T11:16:40.325Z,38.00
2019-01-10T11:19:10.466Z,32.90
2019-01-10T11:21:40.605Z,32.17
2019-01-10T11:24:10.746Z,29.17
2019-01-10T11:26:40.973Z,35.40
2019-01-10T11:29:12.122Z,37.80
2019-01-10T11:31:42.317Z,31.90
2019-01-10T11:34:12.582Z,32.70
2019-01-10T11:36:42.850Z,31.47
2019-01-10T11:39:13.058Z,28.57
2019-01-10T11:41:43.434Z,28.13
2019-01-10T11:44:14.463Z,29.40
2019-01-10T11:46:44.693Z,30.27
2019-01-10T11:49:15.859Z,30.40
2019-01-10T11:51:46.075Z,29.30
2019-01-10T11:54:16.328Z,31.40
2019-01-10T11:56:46.480Z,29.43
2019-01-10T11:59:16.621Z,36.40
2019-01-10T12:01:46.877Z,33.80
2019-01-10T12:04:17.046Z,31.87
2019-01-10T12:06:47.214Z,36.53
2019-01-10T12:09:17.373Z,31.33
2019-01-10T12:11:47.584Z,34.80
2019-01-10T12:14:17.727Z,36.83
2019-01-10T12:16:47.861Z,42.17
2019-01-10T12:19:17.997Z,39.90
2019-01-10T12:21:48.146Z,36.40
2019-01-10T12:24:18.338Z,31.03
2019-01-10T12:26:48.518Z,33.93
2019-01-10T12:29:18.685Z,44.57
2019-01-10T12:31:48.841Z,40.00
2019-01-10T12:34:18.997Z,46.10
2019-01-10T12:36:49.166Z,48.87
2019-01-10T12:39:19.315Z,46.10
2019-01-10T12:41:49.491Z,42.20
2019-01-10T12:44:19.700Z,41.13
2019-01-10T12:46:49.833Z,36.83
2019-01-10T12:49:20.914Z,35.90
2019-01-10T12:51:51.181Z,36.47
2019-01-10T12:54:22.056Z,35.03
2019-01-10T12:56:52.342Z,35.60
2019-01-10T12:59:23.636Z,34.33
2019-01-10T13:01:53.927Z,38.73
2019-01-10T13:04:24.173Z,38.33
2019-01-10T13:06:54.376Z,41.83
2019-01-10T13:09:24.519Z,46.83
2019-01-10T13:11:54.668Z,36.77
2019-01-10T13:14:24.826Z,40.00
2019-01-10T13:16:55.195Z,40.63
2019-01-10T13:19:25.366Z,39.67
2019-01-10T13:21:55.558Z,40.93
2019-01-10T13:24:25.702Z,34.60
2019-01-10T13:26:56.111Z,41.10
2019-01-10T13:29:26.287Z,73.80
2019-01-10T13:31:56.449Z,41.27
2019-01-10T13:34:26.593Z,38.63
2019-01-10T13:36:56.784Z,67.97
2019-01-10T13:39:27.286Z,48.63
2019-01-10T13:41:57.438Z,36.77
2019-01-10T13:44:27.586Z,79.33
2019-01-10T13:46:57.852Z,49.37
2019-01-10T13:49:29.479Z,36.83
2019-01-10T13:51:59.685Z,44.70
2019-01-10T13:54:29.953Z,37.67
2019-01-10T13:57:00.165Z,55.77
2019-01-10T13:59:30.402Z,42.57
2019-01-10T14:02:00.550Z,44.83
2019-01-10T14:04:30.858Z,47.47
2019-01-10T14:07:01.055Z,54.13
2019-01-10T14:09:31.530Z,46.33
2019-01-10T14:12:01.912Z,42.60
2019-01-10T14:14:32.131Z,43.83
2019-01-10T14:17:02.282Z,43.40
2019-01-10T14:19:32.434Z,46.20
2019-01-10T14:22:02.659Z,41.37
2019-01-10T14:24:32.925Z,36.77
2019-01-10T14:27:03.063Z,33.47
2019-01-10T14:29:33.206Z,35.70
2019-01-10T14:32:03.559Z,36.43
2019-01-10T14:34:33.852Z,43.07
2019-01-10T14:37:04.340Z,40.37
2019-01-10T14:39:34.506Z,36.23
2019-01-10T14:42:04.673Z,36.13
2019-01-10T14:44:34.881Z,38.57
2019-01-10T14:47:09.139Z,43.77
2019-01-10T14:49:40.969Z,48.80
2019-01-10T14:52:11.129Z,45.53
2019-01-10T14:54:41.304Z,43.87
2019-01-10T14:57:11.439Z,45.87
2019-01-10T14:59:41.602Z,48.03
2019-01-10T15:02:11.750Z,43.63
2019-01-10T15:04:41.906Z,38.67
2019-01-10T15:07:12.060Z,37.97
2019-01-10T15:09:42.326Z,43.53
2019-01-10T15:12:12.494Z,44.73
2019-01-10T15:14:42.662Z,40.90
2019-01-10T15:17:13.952Z,43.27
2019-01-10T15:19:44.324Z,44.27
2019-01-10T15:22:14.469Z,56.87
2019-01-10T15:24:44.649Z,43.50
2019-01-10T15:27:14.831Z,41.00
2019-01-10T15:29:45.070Z,45.03
2019-01-10T15:32:15.229Z,36.40
2019-01-10T15:34:45.373Z,37.60
2019-01-10T15:37:15.575Z,36.53
2019-01-10T15:39:45.782Z,47.97
2019-01-10T15:42:15.974Z,41.70
2019-01-10T15:44:46.428Z,39.40
2019-01-10T15:47:19.804Z,37.13
2019-01-10T15:49:48.563Z,38.57
2019-01-10T15:52:18.748Z,38.50
2019-01-10T15:54:48.921Z,38.03
2019-01-10T15:57:19.207Z,40.93
2019-01-10T15:59:49.430Z,37.57
2019-01-10T16:02:19.590Z,42.77
2019-01-10T16:04:49.749Z,37.70
2019-01-10T16:07:19.946Z,40.17
2019-01-10T16:09:50.153Z,36.47
2019-01-10T16:12:20.361Z,37.37
2019-01-10T16:14:50.578Z,35.77
2019-01-10T16:17:25.586Z,38.03
2019-01-10T16:19:52.727Z,33.37
2019-01-10T16:22:22.937Z,33.10
2019-01-10T16:24:53.105Z,35.50
2019-01-10T16:27:23.567Z,39.00
2019-01-10T16:29:53.874Z,44.67
2019-01-10T16:32:24.039Z,54.80
2019-01-10T16:34:54.302Z,48.00
2019-01-10T16:37:24.461Z,55.57
2019-01-10T16:39:54.968Z,50.57
2019-01-10T16:42:25.250Z,44.60
2019-01-10T16:44:55.450Z,52.87
2019-01-10T16:47:31.443Z,57.43
2019-01-10T16:49:58.323Z,50.67
2019-01-10T16:52:31.425Z,53.43
2019-01-10T16:55:01.611Z,60.63
2019-01-10T16:57:31.966Z,49.83
2019-01-10T17:00:02.161Z,39.63
2019-01-10T17:02:36.227Z,43.23
2019-01-10T17:05:05.702Z,41.57
2019-01-10T17:07:35.947Z,46.07
2019-01-10T17:10:06.799Z,57.13
2019-01-10T17:12:37.020Z,80.67
2019-01-10T17:15:07.701Z,52.50
2019-01-10T17:17:37.980Z,45.87
2019-01-10T17:20:10.313Z,37.97
2019-01-10T17:22:40.513Z,40.60
2019-01-10T17:25:10.705Z,38.20
2019-01-10T17:27:41.249Z,41.23
2019-01-10T17:30:17.102Z,35.07
2019-01-10T17:32:47.278Z,45.27
2019-01-10T17:35:19.255Z,43.70
2019-01-10T17:37:49.798Z,37.63
2019-01-10T17:40:20.965Z,41.87
2019-01-10T17:42:51.416Z,40.03
2019-01-10T17:45:23.489Z,38.07
2019-01-10T17:47:53.647Z,36.70
2019-01-10T17:50:24.795Z,40.33
2019-01-10T17:52:55.054Z,41.03
2019-01-10T17:55:25.273Z,41.97
2019-01-10T17:57:55.437Z,38.70
2019-01-10T18:00:29.959Z,36.73
2019-01-10T18:03:00.602Z,42.27
2019-01-10T18:05:32.222Z,42.17
2019-01-10T18:08:03.259Z,70.10
2019-01-10T18:10:33.587Z,55.03
2019-01-10T18:13:04.011Z,56.17
2019-01-10T18:15:34.382Z,50.00
2019-01-10T18:18:05.118Z,49.50
2019-01-10T18:20:40.285Z,43.97
2019-01-10T18:23:12.002Z,52.60
2019-01-10T18:25:42.416Z,37.80
2019-01-10T18:28:13.781Z,75.27
2019-01-10T18:30:44.210Z,122.57
2019-01-10T18:33:14.444Z,95.07
2019-01-10T18:35:44.975Z,93.83
2019-01-10T18:38:15.147Z,101.43
2019-01-10T18:40:45.313Z,39.53
2019-01-10T18:43:15.491Z,60.23
2019-01-10T18:45:46.803Z,95.60
2019-01-10T18:48:17.053Z,42.10
2019-01-10T18:50:47.236Z,63.40
2019-01-10T18:53:17.527Z,79.20
2019-01-10T18:55:47.699Z,96.93
2019-01-10T18:58:17.868Z,74.23
2019-01-10T19:00:48.037Z,44.47
2019-01-10T19:03:18.290Z,84.33
2019-01-10T19:05:48.531Z,96.70
2019-01-10T19:08:18.693Z,65.60
2019-01-10T19:10:49.042Z,52.40
2019-01-10T19:13:19.362Z,47.63
2019-01-10T19:15:49.591Z,84.67
2019-01-10T19:18:19.973Z,77.10
2019-01-10T19:20:50.121Z,48.83
2019-01-10T19:23:20.428Z,39.87
2019-01-10T19:25:50.590Z,39.03
2019-01-10T19:28:20.753Z,40.97
2019-01-10T19:30:51.259Z,36.33
2019-01-10T19:33:21.513Z,43.17
2019-01-10T19:35:52.102Z,38.50
2019-01-10T19:38:22.359Z,45.67
2019-01-10T19:40:53.735Z,55.00
2019-01-10T19:43:23.956Z,42.40
2019-01-10T19:45:54.299Z,38.80
2019-01-10T19:48:24.650Z,35.07
2019-01-10T19:50:54.934Z,38.83
2019-01-10T19:53:25.241Z,35.57
2019-01-10T19:55:55.609Z,40.20
2019-01-10T19:58:25.944Z,46.13
2019-01-10T20:00:57.093Z,39.60
2019-01-10T20:03:27.361Z,36.93
2019-01-10T20:05:57.634Z,37.13
2019-01-10T20:08:27.782Z,36.67
2019-01-10T20:10:57.965Z,37.47
2019-01-10T20:13:28.205Z,36.83
2019-01-10T20:15:58.637Z,33.87
2019-01-10T20:18:28.938Z,40.03
2019-01-10T20:20:59.107Z,35.80
2019-01-10T20:23:32.301Z,35.07
2019-01-10T20:26:02.765Z,39.57
2019-01-10T20:28:33.062Z,42.67
2019-01-10T20:31:03.282Z,45.73
2019-01-10T20:33:33.529Z,47.60
2019-01-10T20:36:03.754Z,47.00
2019-01-10T20:38:33.990Z,59.40
2019-01-10T20:41:04.446Z,86.73
2019-01-10T20:43:34.693Z,51.90
2019-01-10T20:46:04.937Z,35.40
2019-01-10T20:48:35.119Z,56.37
2019-01-10T20:51:05.531Z,38.73
2019-01-10T20:53:35.837Z,53.93
2019-01-10T20:56:06.046Z,69.63
2019-01-10T20:58:36.259Z,42.20
2019-01-10T21:01:06.442Z,40.10
2019-01-10T21:03:36.741Z,39.20
2019-01-10T21:06:07.076Z,37.87
2019-01-10T21:08:37.319Z,32.87
2019-01-10T21:11:07.586Z,34.63
2019-01-10T21:13:37.764Z,37.07
2019-01-10T21:16:10.107Z,39.50
2019-01-10T21:18:40.285Z,39.57
2019-01-10T21:21:10.497Z,34.53
2019-01-10T21:23:41.622Z,36.60
2019-01-10T21:26:12.858Z,33.90
2019-01-10T21:28:43.226Z,37.97
2019-01-10T21:31:13.549Z,45.23
2019-01-10T21:33:43.779Z,48.27
2019-01-10T21:36:14.193Z,42.27
2019-01-10T21:38:44.405Z,37.20
2019-01-10T21:41:14.696Z,46.53
2019-01-10T21:43:45.949Z,38.20
2019-01-10T21:46:16.204Z,47.47
2019-01-10T21:48:46.370Z,37.40
2019-01-10T21:51:16.687Z,35.93
2019-01-10T21:53:46.850Z,40.50
2019-01-10T21:56:17.099Z,33.67
2019-01-10T21:58:47.326Z,44.27
2019-01-10T22:01:17.477Z,40.53
2019-01-10T22:03:47.730Z,45.60
2019-01-10T22:06:18.848Z,39.60
2019-01-10T22:08:49.118Z,43.57
2019-01-10T22:11:19.336Z,40.53
2019-01-10T22:13:49.620Z,38.87
2019-01-10T22:16:19.894Z,42.93
2019-01-10T22:18:50.066Z,48.57
2019-01-10T22:21:20.250Z,39.73
2019-01-10T22:23:50.444Z,34.90
2019-01-10T22:26:20.602Z,36.07
2019-01-10T22:28:51.582Z,35.13
2019-01-10T22:31:21.782Z,37.53
2019-01-10T22:33:52.065Z,40.97
2019-01-10T22:36:22.311Z,49.57
2019-01-10T22:38:52.487Z,36.50
2019-01-10T22:41:22.690Z,49.47
2019-01-10T22:43:52.883Z,40.43
2019-01-10T22:46:23.077Z,44.77
2019-01-10T22:48:53.253Z,43.20
2019-01-10T22:51:23.550Z,42.73
2019-01-10T22:53:53.731Z,38.20
2019-01-10T22:56:23.922Z,37.93
2019-01-10T22:58:54.160Z,37.73
2019-01-10T23:01:45.829Z,38.17
2019-01-10T23:04:19.897Z,38.67
2019-01-10T23:06:50.190Z,43.73
2019-01-10T23:09:20.386Z,39.47
2019-01-10T23:11:50.533Z,40.33
2019-01-10T23:14:20.711Z,42.93
2019-01-10T23:16:50.883Z,43.87
2019-01-10T23:19:21.119Z,43.23
2019-01-10T23:21:51.329Z,44.00
2019-01-10T23:24:26.741Z,41.30
2019-01-10T23:26:56.774Z,43.53
2019-01-10T23:29:32.846Z,41.23
2019-01-10T23:32:12.269Z,40.30
2019-01-10T23:34:51.179Z,42.67
2019-01-10T23:37:25.647Z,40.07
2019-01-10T23:39:56.674Z,39.67
2019-01-10T23:42:26.914Z,36.90
2019-01-10T23:45:00.810Z,36.67
2019-01-10T23:47:31.331Z,39.27
2019-01-10T23:50:01.496Z,40.17
2019-01-10T23:52:32.653Z,40.90
2019-01-10T23:55:02.830Z,38.27
2019-01-10T23:57:33.029Z,39.53
